SWA3364 KDEN-KMCO
Flight info
| Callsign | SWA3364 |
|---|---|
| Flight time | 2h 49m |
| Altitude | 37000 |
| Route | EPKEE7 DUUZE ICT MUDHO Q128 JILLS DEEDA GRNCH5 |
| Aircraft | B738/M-VGDW/C |
Departure
| Time | 2026-05-06 21:39 |
|---|---|
| Airport | Denver International Airport (KDEN) |
Arrival
| Time | 2026-05-07 00:28 |
|---|---|
| Airport | Orlando International Airport (KMCO) |
| Time | Latitude | Longitude | Altitude | Speed | Heading |
|---|---|---|---|---|---|
| 2026-05-06 21:30 | 39.86266 | -104.67207 | 5441 ft | 0 kts | 359° |
| 2026-05-06 21:30 | 39.86262 | -104.67207 | 5441 ft | 2 kts | 359° |
| 2026-05-06 21:30 | 39.86246 | -104.67208 | 5441 ft | 3 kts | 13° |
| 2026-05-06 21:30 | 39.86228 | -104.67218 | 5441 ft | 3 kts | 33° |
| 2026-05-06 21:31 | 39.86220 | -104.67226 | 5441 ft | 0 kts | 43° |
| 2026-05-06 21:31 | 39.86219 | -104.67189 | 5441 ft | 5 kts | 120° |
| 2026-05-06 21:31 | 39.86209 | -104.67168 | 5441 ft | 5 kts | 120° |
| 2026-05-06 21:32 | 39.86197 | -104.67113 | 5441 ft | 7 kts | 89° |
| 2026-05-06 21:32 | 39.86135 | -104.66949 | 5441 ft | 12 kts | 91° |
| 2026-05-06 21:32 | 39.86136 | -104.66841 | 5441 ft | 13 kts | 90° |
| 2026-05-06 21:33 | 39.86135 | -104.66722 | 5441 ft | 13 kts | 91° |
| 2026-05-06 21:33 | 39.86129 | -104.66599 | 5441 ft | 14 kts | 97° |
| 2026-05-06 21:33 | 39.86116 | -104.66516 | 5441 ft | 14 kts | 98° |
| 2026-05-06 21:33 | 39.86111 | -104.66347 | 5441 ft | 15 kts | 91° |
| 2026-05-06 21:34 | 39.86124 | -104.66257 | 5441 ft | 15 kts | 52° |
| 2026-05-06 21:34 | 39.86213 | -104.66230 | 5441 ft | 14 kts | 360° |
| 2026-05-06 21:34 | 39.86310 | -104.66230 | 5441 ft | 13 kts | 0° |
| 2026-05-06 21:34 | 39.86403 | -104.66227 | 5441 ft | 14 kts | 1° |
| 2026-05-06 21:35 | 39.86500 | -104.66225 | 5441 ft | 14 kts | 1° |
| 2026-05-06 21:35 | 39.86604 | -104.66224 | 5441 ft | 15 kts | 0° |
| 2026-05-06 21:35 | 39.86708 | -104.66223 | 5441 ft | 15 kts | 0° |
| 2026-05-06 21:35 | 39.86820 | -104.66222 | 5441 ft | 16 kts | 0° |
| 2026-05-06 21:36 | 39.86932 | -104.66221 | 5441 ft | 17 kts | 0° |
| 2026-05-06 21:36 | 39.87048 | -104.66220 | 5441 ft | 17 kts | 0° |
| 2026-05-06 21:36 | 39.87172 | -104.66218 | 5441 ft | 18 kts | 0° |
| 2026-05-06 21:36 | 39.87299 | -104.66217 | 5441 ft | 18 kts | 0° |
| 2026-05-06 21:37 | 39.87432 | -104.66215 | 5441 ft | 19 kts | 0° |
| 2026-05-06 21:37 | 39.87564 | -104.66212 | 5441 ft | 19 kts | 1° |
| 2026-05-06 21:37 | 39.87703 | -104.66210 | 5441 ft | 20 kts | 2° |
| 2026-05-06 21:37 | 39.87764 | -104.66103 | 5441 ft | 16 kts | 90° |
| 2026-05-06 21:38 | 39.87761 | -104.65728 | 5441 ft | 69 kts | 90° |
| 2026-05-06 21:38 | 39.87755 | -104.64841 | 5441 ft | 124 kts | 91° |
| 2026-05-06 21:38 | 39.87743 | -104.63319 | 5479 ft | 168 kts | 90° |
| 2026-05-06 21:38 | 39.87734 | -104.62117 | 5722 ft | 181 kts | 91° |
| 2026-05-06 21:39 | 39.87351 | -104.60544 | 6356 ft | 183 kts | 112° |
| 2026-05-06 21:39 | 39.86634 | -104.59157 | 6966 ft | 197 kts | 123° |
| 2026-05-06 21:39 | 39.85758 | -104.57633 | 7531 ft | 216 kts | 127° |
| 2026-05-06 21:39 | 39.84856 | -104.55868 | 8077 ft | 239 kts | 123° |
| 2026-05-06 21:40 | 39.84080 | -104.53961 | 8593 ft | 255 kts | 117° |
| 2026-05-06 21:40 | 39.83392 | -104.51811 | 9105 ft | 257 kts | 110° |
| 2026-05-06 21:40 | 39.82835 | -104.49597 | 9611 ft | 261 kts | 107° |
| 2026-05-06 21:40 | 39.82358 | -104.47273 | 10123 ft | 265 kts | 104° |
| 2026-05-06 21:41 | 39.81936 | -104.44936 | 10626 ft | 267 kts | 102° |
| 2026-05-06 21:41 | 39.81524 | -104.42579 | 11127 ft | 270 kts | 104° |
| 2026-05-06 21:41 | 39.80984 | -104.40204 | 11633 ft | 273 kts | 107° |
| 2026-05-06 21:41 | 39.80351 | -104.37881 | 12131 ft | 276 kts | 110° |
| 2026-05-06 21:42 | 39.79643 | -104.35551 | 12632 ft | 279 kts | 112° |
| 2026-05-06 21:42 | 39.78883 | -104.33199 | 13136 ft | 284 kts | 114° |
| 2026-05-06 21:42 | 39.78050 | -104.30732 | 13649 ft | 305 kts | 115° |
| 2026-05-06 21:42 | 39.77149 | -104.28127 | 14193 ft | 328 kts | 115° |
| 2026-05-06 21:43 | 39.76172 | -104.25337 | 14734 ft | 352 kts | 116° |
| 2026-05-06 21:43 | 39.75124 | -104.22358 | 15275 ft | 375 kts | 116° |
| 2026-05-06 21:43 | 39.73999 | -104.19167 | 15815 ft | 397 kts | 116° |
| 2026-05-06 21:43 | 39.72838 | -104.15874 | 16345 ft | 416 kts | 116° |
| 2026-05-06 21:44 | 39.71605 | -104.12379 | 16880 ft | 434 kts | 116° |
| 2026-05-06 21:44 | 39.70312 | -104.08718 | 17419 ft | 449 kts | 116° |
| 2026-05-06 21:44 | 39.68999 | -104.05006 | 17947 ft | 463 kts | 116° |
| 2026-05-06 21:44 | 39.67632 | -104.01142 | 18482 ft | 474 kts | 116° |
| 2026-05-06 21:45 | 39.66224 | -103.97230 | 19012 ft | 483 kts | 117° |
| 2026-05-06 21:45 | 39.64741 | -103.93280 | 19542 ft | 491 kts | 118° |
| 2026-05-06 21:45 | 39.63193 | -103.89302 | 20070 ft | 497 kts | 119° |
| 2026-05-06 21:45 | 39.61583 | -103.85295 | 20600 ft | 502 kts | 120° |
| 2026-05-06 21:46 | 39.59999 | -103.81212 | 21131 ft | 504 kts | 118° |
| 2026-05-06 21:46 | 39.58610 | -103.77210 | 21645 ft | 460 kts | 116° |
| 2026-05-06 21:46 | 39.57405 | -103.73402 | 22145 ft | 439 kts | 115° |
| 2026-05-06 21:46 | 39.56313 | -103.69745 | 22637 ft | 435 kts | 114° |
| 2026-05-06 21:47 | 39.55250 | -103.66065 | 23137 ft | 433 kts | 114° |
| 2026-05-06 21:47 | 39.54191 | -103.62322 | 23646 ft | 432 kts | 114° |
| 2026-05-06 21:47 | 39.53505 | -103.59876 | 23980 ft | 432 kts | 114° |
| 2026-05-06 21:47 | 39.52140 | -103.54989 | 24648 ft | 432 kts | 113° |
| 2026-05-06 21:48 | 39.51117 | -103.51331 | 25148 ft | 433 kts | 113° |
| 2026-05-06 21:48 | 39.50096 | -103.47692 | 25645 ft | 434 kts | 113° |
| 2026-05-06 21:48 | 39.49061 | -103.44015 | 26146 ft | 435 kts | 113° |
| 2026-05-06 21:48 | 39.48363 | -103.41542 | 26482 ft | 435 kts | 113° |
| 2026-05-06 21:49 | 39.47334 | -103.37905 | 26977 ft | 435 kts | 113° |
| 2026-05-06 21:49 | 39.46292 | -103.34232 | 27477 ft | 434 kts | 113° |
| 2026-05-06 21:49 | 39.45241 | -103.30541 | 27980 ft | 433 kts | 113° |
| 2026-05-06 21:49 | 39.44205 | -103.26909 | 28476 ft | 432 kts | 113° |
| 2026-05-06 21:50 | 39.43167 | -103.23281 | 28973 ft | 431 kts | 113° |
| 2026-05-06 21:50 | 39.42120 | -103.19626 | 29475 ft | 429 kts | 113° |
| 2026-05-06 21:50 | 39.41090 | -103.16041 | 29970 ft | 427 kts | 113° |
| 2026-05-06 21:50 | 39.40057 | -103.12452 | 30467 ft | 425 kts | 113° |
| 2026-05-06 21:51 | 39.39037 | -103.08911 | 30959 ft | 423 kts | 114° |
| 2026-05-06 21:51 | 39.38002 | -103.05330 | 31461 ft | 420 kts | 114° |
| 2026-05-06 21:51 | 39.36987 | -103.01819 | 31955 ft | 416 kts | 114° |
| 2026-05-06 21:51 | 39.35955 | -102.98351 | 32449 ft | 412 kts | 116° |
| 2026-05-06 21:52 | 39.34843 | -102.94973 | 32944 ft | 407 kts | 118° |
| 2026-05-06 21:52 | 39.33681 | -102.91691 | 33435 ft | 402 kts | 120° |
| 2026-05-06 21:52 | 39.32476 | -102.88437 | 33932 ft | 396 kts | 121° |
| 2026-05-06 21:52 | 39.31277 | -102.85292 | 34420 ft | 390 kts | 122° |
| 2026-05-06 21:53 | 39.30075 | -102.82197 | 34908 ft | 383 kts | 122° |
| 2026-05-06 21:53 | 39.28874 | -102.79134 | 35401 ft | 376 kts | 123° |
| 2026-05-06 21:53 | 39.27706 | -102.76174 | 35886 ft | 368 kts | 123° |
| 2026-05-06 21:53 | 39.26553 | -102.73256 | 36373 ft | 358 kts | 123° |
| 2026-05-06 21:54 | 39.25434 | -102.70426 | 36856 ft | 348 kts | 123° |
| 2026-05-06 21:54 | 39.24369 | -102.67734 | 37324 ft | 336 kts | 123° |
| 2026-05-06 21:54 | 39.23325 | -102.65093 | 37796 ft | 322 kts | 124° |
| 2026-05-06 21:54 | 39.22317 | -102.62545 | 38051 ft | 316 kts | 124° |
| 2026-05-06 21:55 | 39.20311 | -102.57517 | 38177 ft | 317 kts | 124° |
| 2026-05-06 21:55 | 39.18287 | -102.52464 | 38193 ft | 322 kts | 124° |
| 2026-05-06 21:56 | 39.16221 | -102.47292 | 38194 ft | 328 kts | 124° |
| 2026-05-06 21:56 | 39.14111 | -102.42008 | 38195 ft | 335 kts | 124° |
| 2026-05-06 21:57 | 39.11908 | -102.36514 | 37812 ft | 358 kts | 124° |
| 2026-05-06 21:57 | 39.10695 | -102.33538 | 37044 ft | 391 kts | 124° |
| 2026-05-06 21:57 | 39.09380 | -102.30327 | 36336 ft | 420 kts | 124° |
| 2026-05-06 21:58 | 39.08015 | -102.26976 | 36219 ft | 431 kts | 123° |
| 2026-05-06 21:58 | 39.06612 | -102.23503 | 36200 ft | 438 kts | 123° |
| 2026-05-06 21:58 | 39.03767 | -102.16422 | 36193 ft | 452 kts | 123° |
| 2026-05-06 21:59 | 39.00857 | -102.09168 | 36192 ft | 464 kts | 123° |
| 2026-05-06 21:59 | 38.97860 | -102.01719 | 36191 ft | 474 kts | 123° |
| 2026-05-06 22:00 | 38.94798 | -101.94129 | 36190 ft | 484 kts | 123° |
| 2026-05-06 22:00 | 38.91661 | -101.86382 | 36190 ft | 492 kts | 123° |
| 2026-05-06 22:01 | 38.88485 | -101.78565 | 36191 ft | 499 kts | 123° |
| 2026-05-06 22:01 | 38.85351 | -101.70417 | 36191 ft | 509 kts | 119° |
| 2026-05-06 22:02 | 38.82709 | -101.61639 | 36190 ft | 518 kts | 115° |
| 2026-05-06 22:02 | 38.80363 | -101.52676 | 36190 ft | 522 kts | 113° |
| 2026-05-06 22:03 | 38.78125 | -101.43630 | 36191 ft | 524 kts | 112° |
| 2026-05-06 22:03 | 38.75899 | -101.34485 | 36192 ft | 525 kts | 112° |
| 2026-05-06 22:04 | 38.74054 | -101.26909 | 36196 ft | 525 kts | 113° |
| 2026-05-06 22:04 | 38.71812 | -101.17770 | 36198 ft | 525 kts | 113° |
| 2026-05-06 22:05 | 38.69565 | -101.08692 | 36199 ft | 526 kts | 114° |
| 2026-05-06 22:05 | 38.67293 | -100.99602 | 36202 ft | 527 kts | 114° |
| 2026-05-06 22:06 | 38.64993 | -100.90473 | 36204 ft | 528 kts | 114° |
| 2026-05-06 22:06 | 38.62677 | -100.81348 | 36205 ft | 530 kts | 115° |
| 2026-05-06 22:07 | 38.60348 | -100.72223 | 36205 ft | 531 kts | 115° |
| 2026-05-06 22:07 | 38.57982 | -100.63004 | 36204 ft | 533 kts | 115° |
| 2026-05-06 22:08 | 38.56018 | -100.55386 | 36203 ft | 534 kts | 116° |
| 2026-05-06 22:08 | 38.53615 | -100.46100 | 36201 ft | 535 kts | 116° |
| 2026-05-06 22:09 | 38.51240 | -100.36959 | 36199 ft | 535 kts | 116° |
| 2026-05-06 22:09 | 38.48848 | -100.27792 | 36197 ft | 536 kts | 117° |
| 2026-05-06 22:10 | 38.46426 | -100.18548 | 36194 ft | 537 kts | 117° |
| 2026-05-06 22:10 | 38.44013 | -100.09373 | 36190 ft | 538 kts | 117° |
| 2026-05-06 22:11 | 38.41563 | -100.00097 | 36187 ft | 538 kts | 117° |
| 2026-05-06 22:11 | 38.39527 | -99.92446 | 36185 ft | 538 kts | 115° |
| 2026-05-06 22:12 | 38.37071 | -99.83219 | 36182 ft | 537 kts | 116° |
| 2026-05-06 22:12 | 38.34607 | -99.73974 | 36176 ft | 537 kts | 116° |
| 2026-05-06 22:13 | 38.32161 | -99.64823 | 36175 ft | 536 kts | 116° |
| 2026-05-06 22:13 | 38.29707 | -99.55676 | 36174 ft | 537 kts | 116° |
| 2026-05-06 22:14 | 38.27233 | -99.46495 | 36173 ft | 537 kts | 117° |
| 2026-05-06 22:14 | 38.24747 | -99.37308 | 36173 ft | 538 kts | 117° |
| 2026-05-06 22:15 | 38.22265 | -99.28174 | 36172 ft | 540 kts | 117° |
| 2026-05-06 22:15 | 38.20159 | -99.20448 | 36170 ft | 541 kts | 117° |
| 2026-05-06 22:16 | 38.17641 | -99.11243 | 36169 ft | 543 kts | 118° |
| 2026-05-06 22:16 | 38.15098 | -99.01975 | 36170 ft | 544 kts | 118° |
| 2026-05-06 22:17 | 38.12519 | -98.92607 | 36171 ft | 545 kts | 118° |
| 2026-05-06 22:17 | 38.09954 | -98.83325 | 36173 ft | 546 kts | 118° |
| 2026-05-06 22:18 | 38.07375 | -98.74026 | 36176 ft | 547 kts | 119° |
| 2026-05-06 22:18 | 38.04787 | -98.64729 | 36171 ft | 549 kts | 119° |
| 2026-05-06 22:19 | 38.02622 | -98.56973 | 36168 ft | 550 kts | 120° |
| 2026-05-06 22:19 | 38.00019 | -98.47680 | 36164 ft | 551 kts | 120° |
| 2026-05-06 22:20 | 37.97388 | -98.38316 | 36161 ft | 552 kts | 120° |
| 2026-05-06 22:20 | 37.94746 | -98.28955 | 36158 ft | 552 kts | 120° |
| 2026-05-06 22:21 | 37.92093 | -98.19587 | 36154 ft | 553 kts | 120° |
| 2026-05-06 22:21 | 37.89840 | -98.11659 | 36153 ft | 554 kts | 120° |
| 2026-05-06 22:22 | 37.87126 | -98.02137 | 36149 ft | 554 kts | 121° |
| 2026-05-06 22:22 | 37.84395 | -97.92589 | 36145 ft | 554 kts | 121° |
| 2026-05-06 22:23 | 37.81739 | -97.83331 | 36143 ft | 554 kts | 121° |
| 2026-05-06 22:23 | 37.78992 | -97.73792 | 36140 ft | 553 kts | 121° |
| 2026-05-06 22:24 | 37.77039 | -97.67033 | 36137 ft | 553 kts | 121° |
| 2026-05-06 22:24 | 37.74294 | -97.57766 | 36134 ft | 551 kts | 122° |
| 2026-05-06 22:25 | 37.71866 | -97.50086 | 36130 ft | 550 kts | 123° |
| 2026-05-06 22:25 | 37.69033 | -97.41428 | 36129 ft | 549 kts | 124° |
| 2026-05-06 22:26 | 37.65987 | -97.32294 | 36124 ft | 549 kts | 124° |
| 2026-05-06 22:26 | 37.62947 | -97.23256 | 36114 ft | 550 kts | 125° |
| 2026-05-06 22:27 | 37.59906 | -97.14257 | 36117 ft | 550 kts | 125° |
| 2026-05-06 22:27 | 37.56840 | -97.05202 | 36127 ft | 550 kts | 125° |
| 2026-05-06 22:28 | 37.53753 | -96.96105 | 36127 ft | 551 kts | 125° |
| 2026-05-06 22:28 | 37.51145 | -96.88436 | 36126 ft | 551 kts | 125° |
| 2026-05-06 22:29 | 37.48052 | -96.79358 | 36126 ft | 552 kts | 126° |
| 2026-05-06 22:29 | 37.44919 | -96.70180 | 36126 ft | 552 kts | 126° |
| 2026-05-06 22:30 | 37.41844 | -96.61196 | 36125 ft | 552 kts | 126° |
| 2026-05-06 22:30 | 37.38694 | -96.52016 | 36124 ft | 553 kts | 126° |
| 2026-05-06 22:31 | 37.35579 | -96.42961 | 36123 ft | 553 kts | 126° |
| 2026-05-06 22:31 | 37.32973 | -96.35404 | 36121 ft | 553 kts | 126° |
| 2026-05-06 22:32 | 37.29869 | -96.26428 | 36115 ft | 553 kts | 126° |
| 2026-05-06 22:32 | 37.26686 | -96.17248 | 36110 ft | 553 kts | 126° |
| 2026-05-06 22:33 | 37.23538 | -96.08198 | 36106 ft | 553 kts | 126° |
| 2026-05-06 22:33 | 37.20601 | -95.99778 | 36103 ft | 553 kts | 126° |
| 2026-05-06 22:34 | 37.17457 | -95.90795 | 36101 ft | 553 kts | 126° |
| 2026-05-06 22:34 | 37.14282 | -95.81749 | 36099 ft | 554 kts | 126° |
| 2026-05-06 22:35 | 37.11629 | -95.74212 | 36099 ft | 555 kts | 126° |
| 2026-05-06 22:35 | 37.08452 | -95.65209 | 36095 ft | 555 kts | 126° |
| 2026-05-06 22:36 | 37.05222 | -95.56081 | 36090 ft | 555 kts | 126° |
| 2026-05-06 22:36 | 37.02001 | -95.47002 | 36089 ft | 555 kts | 127° |
| 2026-05-06 22:37 | 36.98806 | -95.38022 | 36089 ft | 555 kts | 127° |
| 2026-05-06 22:37 | 36.95556 | -95.28919 | 36086 ft | 555 kts | 127° |
| 2026-05-06 22:38 | 36.92848 | -95.21356 | 36083 ft | 555 kts | 127° |
| 2026-05-06 22:38 | 36.89636 | -95.12411 | 36080 ft | 556 kts | 127° |
| 2026-05-06 22:39 | 36.86373 | -95.03350 | 36077 ft | 556 kts | 127° |
| 2026-05-06 22:39 | 36.83142 | -94.94403 | 36077 ft | 556 kts | 127° |
| 2026-05-06 22:40 | 36.79774 | -94.85100 | 36077 ft | 556 kts | 127° |
| 2026-05-06 22:40 | 36.77007 | -94.77479 | 36074 ft | 556 kts | 127° |
| 2026-05-06 22:41 | 36.71707 | -94.62930 | 36066 ft | 556 kts | 127° |
| 2026-05-06 22:42 | 36.69019 | -94.55579 | 36070 ft | 556 kts | 127° |
| 2026-05-06 22:42 | 36.65750 | -94.46661 | 36074 ft | 555 kts | 127° |
| 2026-05-06 22:43 | 36.62408 | -94.37574 | 36077 ft | 555 kts | 127° |
| 2026-05-06 22:43 | 36.59149 | -94.28742 | 36076 ft | 555 kts | 127° |
| 2026-05-06 22:44 | 36.55802 | -94.19700 | 36074 ft | 556 kts | 127° |
| 2026-05-06 22:44 | 36.53023 | -94.12211 | 36074 ft | 556 kts | 127° |
| 2026-05-06 22:45 | 36.49710 | -94.03303 | 36071 ft | 557 kts | 127° |
| 2026-05-06 22:45 | 36.46378 | -93.94368 | 36069 ft | 557 kts | 127° |
| 2026-05-06 22:46 | 36.43037 | -93.85438 | 36070 ft | 558 kts | 127° |
| 2026-05-06 22:46 | 36.39681 | -93.76500 | 36071 ft | 560 kts | 127° |
| 2026-05-06 22:47 | 36.36310 | -93.67547 | 36071 ft | 561 kts | 127° |
| 2026-05-06 22:47 | 36.32942 | -93.58626 | 36069 ft | 562 kts | 127° |
| 2026-05-06 22:48 | 36.30112 | -93.51141 | 36068 ft | 562 kts | 127° |
| 2026-05-06 22:48 | 36.26721 | -93.42191 | 36067 ft | 561 kts | 127° |
| 2026-05-06 22:49 | 36.23270 | -93.33110 | 36060 ft | 561 kts | 127° |
| 2026-05-06 22:49 | 36.19875 | -93.24203 | 36059 ft | 561 kts | 127° |
| 2026-05-06 22:50 | 36.16453 | -93.15251 | 36060 ft | 561 kts | 127° |
| 2026-05-06 22:50 | 36.13054 | -93.06386 | 36058 ft | 561 kts | 127° |
| 2026-05-06 22:51 | 36.09664 | -92.97571 | 36056 ft | 561 kts | 127° |
| 2026-05-06 22:51 | 36.06823 | -92.90198 | 36054 ft | 561 kts | 127° |
| 2026-05-06 22:52 | 36.03388 | -92.81307 | 36052 ft | 560 kts | 127° |
| 2026-05-06 22:52 | 35.99859 | -92.72201 | 36050 ft | 560 kts | 127° |
| 2026-05-06 22:53 | 35.96503 | -92.63569 | 36050 ft | 560 kts | 127° |
| 2026-05-06 22:53 | 35.92974 | -92.54511 | 36047 ft | 559 kts | 127° |
| 2026-05-06 22:54 | 35.89573 | -92.45804 | 36046 ft | 558 kts | 127° |
| 2026-05-06 22:54 | 35.86677 | -92.38406 | 36048 ft | 558 kts | 127° |
| 2026-05-06 22:55 | 35.83246 | -92.29671 | 36048 ft | 558 kts | 127° |
| 2026-05-06 22:55 | 35.79797 | -92.20917 | 36048 ft | 558 kts | 127° |
| 2026-05-06 22:56 | 35.76324 | -92.12125 | 36047 ft | 558 kts | 127° |
| 2026-05-06 22:56 | 35.72792 | -92.03209 | 36044 ft | 558 kts | 127° |
| 2026-05-06 22:57 | 35.69278 | -91.94362 | 36043 ft | 558 kts | 127° |
| 2026-05-06 22:57 | 35.65940 | -91.85981 | 36042 ft | 557 kts | 127° |
| 2026-05-06 22:58 | 35.62464 | -91.77275 | 36041 ft | 557 kts | 127° |
| 2026-05-06 22:58 | 35.59576 | -91.70057 | 36040 ft | 557 kts | 127° |
| 2026-05-06 22:59 | 35.56044 | -91.61252 | 36041 ft | 557 kts | 128° |
| 2026-05-06 22:59 | 35.52565 | -91.52610 | 36040 ft | 557 kts | 127° |
| 2026-05-06 23:00 | 35.49050 | -91.43902 | 36040 ft | 558 kts | 127° |
| 2026-05-06 23:00 | 35.45535 | -91.35217 | 36040 ft | 559 kts | 127° |
| 2026-05-06 23:01 | 35.41987 | -91.26471 | 36039 ft | 559 kts | 127° |
| 2026-05-06 23:01 | 35.38448 | -91.17766 | 36038 ft | 559 kts | 127° |
| 2026-05-06 23:02 | 35.35462 | -91.10434 | 36035 ft | 559 kts | 127° |
| 2026-05-06 23:02 | 35.31904 | -91.01722 | 36042 ft | 558 kts | 127° |
| 2026-05-06 23:03 | 35.28361 | -90.93068 | 36064 ft | 558 kts | 127° |
| 2026-05-06 23:03 | 35.24784 | -90.84357 | 36063 ft | 558 kts | 127° |
| 2026-05-06 23:04 | 35.21050 | -90.75289 | 36059 ft | 558 kts | 127° |
| 2026-05-06 23:04 | 35.17495 | -90.66677 | 36054 ft | 558 kts | 127° |
| 2026-05-06 23:05 | 35.14517 | -90.59479 | 36044 ft | 558 kts | 127° |
| 2026-05-06 23:05 | 35.10848 | -90.50633 | 36038 ft | 557 kts | 127° |
| 2026-05-06 23:06 | 35.07271 | -90.42034 | 36036 ft | 557 kts | 127° |
| 2026-05-06 23:06 | 35.03687 | -90.33442 | 36036 ft | 557 kts | 127° |
| 2026-05-06 23:07 | 35.00061 | -90.24770 | 36036 ft | 557 kts | 127° |
| 2026-05-06 23:07 | 34.97451 | -90.18542 | 36034 ft | 557 kts | 127° |
| 2026-05-06 23:08 | 34.95163 | -90.13206 | 36032 ft | 553 kts | 129° |
| 2026-05-06 23:08 | 34.91384 | -90.06017 | 36032 ft | 542 kts | 136° |
| 2026-05-06 23:09 | 34.86737 | -89.98485 | 36030 ft | 536 kts | 140° |
| 2026-05-06 23:09 | 34.81945 | -89.91267 | 36024 ft | 534 kts | 142° |
| 2026-05-06 23:10 | 34.77183 | -89.84295 | 36022 ft | 534 kts | 142° |
| 2026-05-06 23:10 | 34.72283 | -89.77175 | 36022 ft | 535 kts | 142° |
| 2026-05-06 23:11 | 34.67348 | -89.69998 | 36020 ft | 536 kts | 142° |
| 2026-05-06 23:11 | 34.63345 | -89.64158 | 36022 ft | 537 kts | 141° |
| 2026-05-06 23:12 | 34.58420 | -89.56948 | 36024 ft | 537 kts | 141° |
| 2026-05-06 23:12 | 34.53588 | -89.49855 | 36025 ft | 536 kts | 141° |
| 2026-05-06 23:13 | 34.48776 | -89.42781 | 36026 ft | 536 kts | 141° |
| 2026-05-06 23:13 | 34.43896 | -89.35604 | 36025 ft | 537 kts | 140° |
| 2026-05-06 23:14 | 34.39065 | -89.28500 | 36023 ft | 536 kts | 140° |
| 2026-05-06 23:14 | 34.34255 | -89.21434 | 36015 ft | 536 kts | 140° |
| 2026-05-06 23:15 | 34.29375 | -89.14271 | 36007 ft | 536 kts | 140° |
| 2026-05-06 23:15 | 34.25344 | -89.08363 | 36001 ft | 536 kts | 140° |
| 2026-05-06 23:16 | 34.20512 | -89.01290 | 35993 ft | 535 kts | 140° |
| 2026-05-06 23:16 | 34.15682 | -88.94234 | 35989 ft | 535 kts | 140° |
| 2026-05-06 23:17 | 34.10801 | -88.87115 | 35986 ft | 535 kts | 140° |
| 2026-05-06 23:17 | 34.05966 | -88.80076 | 35980 ft | 535 kts | 139° |
| 2026-05-06 23:18 | 34.01044 | -88.72927 | 35969 ft | 535 kts | 139° |
| 2026-05-06 23:18 | 33.96207 | -88.65914 | 35956 ft | 534 kts | 139° |
| 2026-05-06 23:19 | 33.92102 | -88.59973 | 35944 ft | 534 kts | 139° |
| 2026-05-06 23:19 | 33.87250 | -88.52961 | 35937 ft | 533 kts | 139° |
| 2026-05-06 23:20 | 33.82374 | -88.45927 | 35929 ft | 533 kts | 139° |
| 2026-05-06 23:20 | 33.77541 | -88.38970 | 35913 ft | 533 kts | 139° |
| 2026-05-06 23:21 | 33.72666 | -88.31966 | 35908 ft | 533 kts | 139° |
| 2026-05-06 23:21 | 33.67856 | -88.25069 | 35908 ft | 533 kts | 139° |
| 2026-05-06 23:22 | 33.63072 | -88.18222 | 35911 ft | 533 kts | 139° |
| 2026-05-06 23:22 | 33.58298 | -88.11404 | 35923 ft | 533 kts | 139° |
| 2026-05-06 23:23 | 33.53492 | -88.04553 | 35926 ft | 533 kts | 139° |
| 2026-05-06 23:23 | 33.49502 | -87.98875 | 35927 ft | 533 kts | 139° |
| 2026-05-06 23:24 | 33.44677 | -87.92022 | 35927 ft | 533 kts | 139° |
| 2026-05-06 23:24 | 33.39905 | -87.85250 | 36207 ft | 526 kts | 139° |
| 2026-05-06 23:24 | 33.37535 | -87.81877 | 36544 ft | 520 kts | 139° |
| 2026-05-06 23:25 | 33.35187 | -87.78544 | 36740 ft | 521 kts | 139° |
| 2026-05-06 23:25 | 33.32889 | -87.75193 | 36854 ft | 525 kts | 137° |
| 2026-05-06 23:25 | 33.30606 | -87.71739 | 36909 ft | 528 kts | 137° |
| 2026-05-06 23:26 | 33.26115 | -87.64713 | 36920 ft | 535 kts | 135° |
| 2026-05-06 23:26 | 33.21690 | -87.57629 | 36920 ft | 538 kts | 135° |
| 2026-05-06 23:27 | 33.17193 | -87.50364 | 36921 ft | 538 kts | 134° |
| 2026-05-06 23:27 | 33.12742 | -87.43158 | 36925 ft | 537 kts | 134° |
| 2026-05-06 23:28 | 33.08310 | -87.35993 | 36932 ft | 536 kts | 134° |
| 2026-05-06 23:28 | 33.03901 | -87.28883 | 36939 ft | 536 kts | 134° |
| 2026-05-06 23:29 | 32.99467 | -87.21760 | 36945 ft | 535 kts | 134° |
| 2026-05-06 23:29 | 32.94993 | -87.14596 | 36949 ft | 535 kts | 134° |
| 2026-05-06 23:30 | 32.90561 | -87.07522 | 36942 ft | 535 kts | 134° |
| 2026-05-06 23:30 | 32.86115 | -87.00445 | 36941 ft | 534 kts | 134° |
| 2026-05-06 23:31 | 32.81672 | -86.93389 | 36940 ft | 534 kts | 134° |
| 2026-05-06 23:31 | 32.77209 | -86.86318 | 36948 ft | 534 kts | 134° |
| 2026-05-06 23:32 | 32.72765 | -86.79288 | 36953 ft | 533 kts | 134° |
| 2026-05-06 23:32 | 32.68288 | -86.72222 | 36955 ft | 532 kts | 134° |
| 2026-05-06 23:33 | 32.63862 | -86.65252 | 36953 ft | 531 kts | 134° |
| 2026-05-06 23:33 | 32.59405 | -86.58246 | 36951 ft | 530 kts | 134° |
| 2026-05-06 23:34 | 32.54955 | -86.51266 | 36948 ft | 529 kts | 134° |
| 2026-05-06 23:34 | 32.50532 | -86.44341 | 36944 ft | 529 kts | 134° |
| 2026-05-06 23:35 | 32.46085 | -86.37393 | 36945 ft | 528 kts | 134° |
| 2026-05-06 23:35 | 32.41674 | -86.30512 | 36942 ft | 527 kts | 134° |
| 2026-05-06 23:36 | 32.37221 | -86.23579 | 36942 ft | 526 kts | 134° |
| 2026-05-06 23:36 | 32.32790 | -86.16693 | 36955 ft | 525 kts | 134° |
| 2026-05-06 23:37 | 32.28374 | -86.09843 | 36961 ft | 525 kts | 134° |
| 2026-05-06 23:37 | 32.23962 | -86.03012 | 36965 ft | 525 kts | 134° |
| 2026-05-06 23:38 | 32.19511 | -85.96133 | 36970 ft | 525 kts | 134° |
| 2026-05-06 23:38 | 32.15685 | -85.90233 | 36978 ft | 528 kts | 134° |
| 2026-05-06 23:39 | 32.11917 | -85.84438 | 36982 ft | 532 kts | 134° |
| 2026-05-06 23:39 | 32.07390 | -85.77486 | 36985 ft | 536 kts | 134° |
| 2026-05-06 23:40 | 32.02835 | -85.70500 | 36986 ft | 538 kts | 134° |
| 2026-05-06 23:40 | 31.98281 | -85.63520 | 36986 ft | 537 kts | 134° |
| 2026-05-06 23:41 | 31.93751 | -85.56579 | 36983 ft | 533 kts | 134° |
| 2026-05-06 23:41 | 31.89231 | -85.49661 | 36985 ft | 529 kts | 134° |
| 2026-05-06 23:42 | 31.84679 | -85.42713 | 36990 ft | 526 kts | 134° |
| 2026-05-06 23:42 | 31.80237 | -85.35953 | 36997 ft | 525 kts | 134° |
| 2026-05-06 23:43 | 31.76488 | -85.30260 | 36997 ft | 525 kts | 134° |
| 2026-05-06 23:43 | 31.72010 | -85.23474 | 36998 ft | 525 kts | 134° |
| 2026-05-06 23:44 | 31.67539 | -85.16710 | 36999 ft | 525 kts | 134° |
| 2026-05-06 23:44 | 31.63006 | -85.09862 | 37000 ft | 525 kts | 134° |
| 2026-05-06 23:45 | 31.58548 | -85.03033 | 36998 ft | 528 kts | 130° |
| 2026-05-06 23:45 | 31.54960 | -84.95454 | 37002 ft | 535 kts | 118° |
| 2026-05-06 23:46 | 31.52119 | -84.87378 | 37002 ft | 538 kts | 113° |
| 2026-05-06 23:46 | 31.49622 | -84.79128 | 37000 ft | 539 kts | 111° |
| 2026-05-06 23:47 | 31.47234 | -84.70788 | 37000 ft | 539 kts | 110° |
| 2026-05-06 23:47 | 31.44864 | -84.62457 | 37002 ft | 539 kts | 110° |
| 2026-05-06 23:48 | 31.42477 | -84.54197 | 37006 ft | 538 kts | 111° |
| 2026-05-06 23:48 | 31.40025 | -84.45894 | 37009 ft | 538 kts | 111° |
| 2026-05-06 23:49 | 31.37534 | -84.37629 | 37012 ft | 538 kts | 111° |
| 2026-05-06 23:49 | 31.35027 | -84.29444 | 37013 ft | 537 kts | 112° |
| 2026-05-06 23:50 | 31.32469 | -84.21198 | 37016 ft | 537 kts | 112° |
| 2026-05-06 23:50 | 31.28605 | -84.08878 | 37019 ft | 537 kts | 112° |
| 2026-05-06 23:51 | 31.26015 | -84.00644 | 37020 ft | 537 kts | 112° |
| 2026-05-06 23:51 | 31.23431 | -83.92450 | 37023 ft | 537 kts | 112° |
| 2026-05-06 23:52 | 31.20839 | -83.84247 | 37029 ft | 538 kts | 112° |
| 2026-05-06 23:52 | 31.18238 | -83.76035 | 37030 ft | 539 kts | 112° |
| 2026-05-06 23:53 | 31.15632 | -83.67828 | 37029 ft | 540 kts | 112° |
| 2026-05-06 23:53 | 31.13028 | -83.59645 | 37028 ft | 540 kts | 112° |
| 2026-05-06 23:54 | 31.10401 | -83.51413 | 37026 ft | 540 kts | 112° |
| 2026-05-06 23:54 | 31.07774 | -83.43200 | 37023 ft | 540 kts | 112° |
| 2026-05-06 23:55 | 31.05162 | -83.35055 | 37019 ft | 539 kts | 112° |
| 2026-05-06 23:55 | 31.02534 | -83.26883 | 37014 ft | 539 kts | 112° |
| 2026-05-06 23:56 | 31.00694 | -83.21172 | 37012 ft | 539 kts | 112° |
| 2026-05-06 23:56 | 30.98047 | -83.12974 | 37010 ft | 538 kts | 112° |
| 2026-05-06 23:57 | 30.95428 | -83.04884 | 37015 ft | 538 kts | 112° |
| 2026-05-06 23:57 | 30.92775 | -82.96708 | 37024 ft | 538 kts | 112° |
| 2026-05-06 23:58 | 30.90088 | -82.88594 | 37027 ft | 537 kts | 116° |
| 2026-05-06 23:58 | 30.88225 | -82.84881 | 37032 ft | 532 kts | 128° |
| 2026-05-06 23:58 | 30.85881 | -82.81555 | 37037 ft | 527 kts | 137° |
| 2026-05-06 23:59 | 30.80487 | -82.75799 | 37038 ft | 521 kts | 146° |
| 2026-05-06 23:59 | 30.74726 | -82.70719 | 37039 ft | 519 kts | 150° |
| 2026-05-07 00:00 | 30.68854 | -82.65875 | 37039 ft | 518 kts | 151° |
| 2026-05-07 00:00 | 30.62974 | -82.61061 | 37040 ft | 517 kts | 150° |
| 2026-05-07 00:01 | 30.57115 | -82.56190 | 37041 ft | 518 kts | 150° |
| 2026-05-07 00:01 | 30.51288 | -82.51245 | 37040 ft | 518 kts | 149° |
| 2026-05-07 00:02 | 30.45519 | -82.46257 | 37041 ft | 519 kts | 148° |
| 2026-05-07 00:02 | 30.39725 | -82.41175 | 36925 ft | 521 kts | 148° |
| 2026-05-07 00:03 | 30.36809 | -82.38607 | 36361 ft | 529 kts | 147° |
| 2026-05-07 00:03 | 30.33863 | -82.35998 | 35880 ft | 524 kts | 147° |
| 2026-05-07 00:03 | 30.31016 | -82.33464 | 35388 ft | 520 kts | 147° |
| 2026-05-07 00:03 | 30.28148 | -82.30904 | 34885 ft | 516 kts | 147° |
| 2026-05-07 00:04 | 30.25332 | -82.28387 | 34387 ft | 513 kts | 147° |
| 2026-05-07 00:04 | 30.22488 | -82.25875 | 33880 ft | 507 kts | 149° |
| 2026-05-07 00:04 | 30.19521 | -82.23871 | 33383 ft | 496 kts | 160° |
| 2026-05-07 00:04 | 30.16333 | -82.22390 | 32883 ft | 486 kts | 168° |
| 2026-05-07 00:05 | 30.13127 | -82.21344 | 32388 ft | 477 kts | 173° |
| 2026-05-07 00:05 | 30.09847 | -82.20576 | 31881 ft | 470 kts | 177° |
| 2026-05-07 00:05 | 30.06647 | -82.20020 | 31383 ft | 463 kts | 180° |
| 2026-05-07 00:05 | 30.03469 | -82.19581 | 30883 ft | 458 kts | 181° |
| 2026-05-07 00:06 | 30.00335 | -82.19205 | 30386 ft | 453 kts | 182° |
| 2026-05-07 00:06 | 29.97202 | -82.18843 | 29884 ft | 449 kts | 182° |
| 2026-05-07 00:06 | 29.94110 | -82.18446 | 29384 ft | 447 kts | 180° |
| 2026-05-07 00:06 | 29.91038 | -82.17961 | 28883 ft | 444 kts | 179° |
| 2026-05-07 00:07 | 29.87995 | -82.17420 | 28383 ft | 441 kts | 178° |
| 2026-05-07 00:07 | 29.84973 | -82.16843 | 27881 ft | 438 kts | 177° |
| 2026-05-07 00:07 | 29.82064 | -82.16265 | 27394 ft | 435 kts | 176° |
| 2026-05-07 00:07 | 29.79019 | -82.15646 | 26880 ft | 431 kts | 176° |
| 2026-05-07 00:08 | 29.76038 | -82.15034 | 26373 ft | 428 kts | 176° |
| 2026-05-07 00:08 | 29.73031 | -82.14414 | 25856 ft | 424 kts | 175° |
| 2026-05-07 00:08 | 29.70108 | -82.13814 | 25349 ft | 420 kts | 175° |
| 2026-05-07 00:08 | 29.68195 | -82.13422 | 25181 ft | 414 kts | 175° |
| 2026-05-07 00:09 | 29.65336 | -82.12835 | 25077 ft | 406 kts | 175° |
| 2026-05-07 00:09 | 29.62496 | -82.12260 | 24589 ft | 412 kts | 175° |
| 2026-05-07 00:09 | 29.59655 | -82.11693 | 24125 ft | 415 kts | 175° |
| 2026-05-07 00:09 | 29.56755 | -82.11120 | 23650 ft | 422 kts | 175° |
| 2026-05-07 00:10 | 29.53857 | -82.10550 | 23180 ft | 426 kts | 175° |
| 2026-05-07 00:10 | 29.50922 | -82.09970 | 22706 ft | 428 kts | 175° |
| 2026-05-07 00:10 | 29.47998 | -82.09392 | 22233 ft | 428 kts | 174° |
| 2026-05-07 00:10 | 29.45063 | -82.08810 | 21758 ft | 427 kts | 174° |
| 2026-05-07 00:11 | 29.42164 | -82.08235 | 21287 ft | 425 kts | 174° |
| 2026-05-07 00:11 | 29.39225 | -82.07652 | 20807 ft | 423 kts | 174° |
| 2026-05-07 00:11 | 29.36348 | -82.07081 | 20326 ft | 421 kts | 174° |
| 2026-05-07 00:11 | 29.33488 | -82.06443 | 19827 ft | 420 kts | 171° |
| 2026-05-07 00:12 | 29.30675 | -82.05467 | 19325 ft | 420 kts | 164° |
| 2026-05-07 00:12 | 29.27964 | -82.04235 | 18827 ft | 418 kts | 160° |
| 2026-05-07 00:12 | 29.26105 | -82.03260 | 18476 ft | 416 kts | 158° |
| 2026-05-07 00:12 | 29.23513 | -82.01762 | 17974 ft | 411 kts | 156° |
| 2026-05-07 00:13 | 29.21825 | -82.00724 | 17637 ft | 407 kts | 155° |
| 2026-05-07 00:13 | 29.19596 | -81.99300 | 17182 ft | 403 kts | 154° |
| 2026-05-07 00:13 | 29.17207 | -81.97733 | 16683 ft | 390 kts | 153° |
| 2026-05-07 00:13 | 29.14915 | -81.96205 | 16175 ft | 370 kts | 153° |
| 2026-05-07 00:14 | 29.12749 | -81.94758 | 15673 ft | 356 kts | 153° |
| 2026-05-07 00:14 | 29.10623 | -81.93351 | 15167 ft | 347 kts | 153° |
| 2026-05-07 00:14 | 29.08558 | -81.91862 | 14654 ft | 342 kts | 150° |
| 2026-05-07 00:14 | 29.06565 | -81.90240 | 14138 ft | 338 kts | 147° |
| 2026-05-07 00:15 | 29.04735 | -81.88598 | 13641 ft | 334 kts | 144° |
| 2026-05-07 00:15 | 29.02951 | -81.86870 | 13139 ft | 331 kts | 142° |
| 2026-05-07 00:15 | 29.01245 | -81.85108 | 12640 ft | 328 kts | 140° |
| 2026-05-07 00:15 | 28.99654 | -81.83305 | 12149 ft | 325 kts | 137° |
| 2026-05-07 00:16 | 28.98991 | -81.82500 | 11935 ft | 323 kts | 135° |
| 2026-05-07 00:16 | 28.97507 | -81.80577 | 11428 ft | 313 kts | 132° |
| 2026-05-07 00:16 | 28.96144 | -81.78695 | 10928 ft | 303 kts | 130° |
| 2026-05-07 00:16 | 28.94869 | -81.76853 | 10432 ft | 295 kts | 129° |
| 2026-05-07 00:17 | 28.93616 | -81.74991 | 9923 ft | 288 kts | 128° |
| 2026-05-07 00:17 | 28.92409 | -81.73172 | 9418 ft | 282 kts | 128° |
| 2026-05-07 00:17 | 28.91238 | -81.71399 | 9159 ft | 270 kts | 128° |
| 2026-05-07 00:17 | 28.90109 | -81.69695 | 9083 ft | 264 kts | 128° |
| 2026-05-07 00:18 | 28.88979 | -81.68000 | 8823 ft | 271 kts | 128° |
| 2026-05-07 00:18 | 28.87824 | -81.66282 | 8324 ft | 273 kts | 128° |
| 2026-05-07 00:18 | 28.86674 | -81.64579 | 7825 ft | 270 kts | 128° |
| 2026-05-07 00:18 | 28.85521 | -81.62873 | 7318 ft | 267 kts | 128° |
| 2026-05-07 00:19 | 28.84408 | -81.61230 | 7132 ft | 256 kts | 128° |
| 2026-05-07 00:19 | 28.83333 | -81.59641 | 7077 ft | 254 kts | 128° |
| 2026-05-07 00:19 | 28.82241 | -81.58027 | 7066 ft | 256 kts | 128° |
| 2026-05-07 00:19 | 28.81150 | -81.56417 | 7063 ft | 258 kts | 128° |
| 2026-05-07 00:20 | 28.80078 | -81.54790 | 7062 ft | 259 kts | 127° |
| 2026-05-07 00:20 | 28.79028 | -81.53111 | 7062 ft | 260 kts | 126° |
| 2026-05-07 00:20 | 28.78003 | -81.51402 | 6892 ft | 267 kts | 124° |
| 2026-05-07 00:20 | 28.76964 | -81.49619 | 6433 ft | 269 kts | 124° |
| 2026-05-07 00:21 | 28.75955 | -81.47844 | 6126 ft | 261 kts | 123° |
| 2026-05-07 00:21 | 28.74950 | -81.46129 | 6018 ft | 256 kts | 128° |
| 2026-05-07 00:21 | 28.73687 | -81.44762 | 6012 ft | 254 kts | 142° |
| 2026-05-07 00:21 | 28.72230 | -81.43457 | 5634 ft | 267 kts | 139° |
| 2026-05-07 00:22 | 28.71047 | -81.42118 | 5197 ft | 261 kts | 135° |
| 2026-05-07 00:22 | 28.69805 | -81.40603 | 4692 ft | 257 kts | 134° |
| 2026-05-07 00:22 | 28.68612 | -81.39168 | 4200 ft | 253 kts | 135° |
| 2026-05-07 00:22 | 28.67369 | -81.37762 | 3697 ft | 249 kts | 136° |
| 2026-05-07 00:23 | 28.66098 | -81.36446 | 3200 ft | 245 kts | 140° |
| 2026-05-07 00:23 | 28.64797 | -81.35246 | 3048 ft | 227 kts | 143° |
| 2026-05-07 00:23 | 28.64386 | -81.34901 | 3035 ft | 219 kts | 144° |
| 2026-05-07 00:23 | 28.63496 | -81.34244 | 3004 ft | 202 kts | 149° |
| 2026-05-07 00:24 | 28.62231 | -81.33550 | 2986 ft | 188 kts | 158° |
| 2026-05-07 00:24 | 28.61045 | -81.33142 | 2992 ft | 184 kts | 166° |
| 2026-05-07 00:24 | 28.59784 | -81.32909 | 2997 ft | 182 kts | 173° |
| 2026-05-07 00:24 | 28.58521 | -81.32814 | 2998 ft | 181 kts | 177° |
| 2026-05-07 00:25 | 28.57251 | -81.32796 | 2870 ft | 186 kts | 180° |
| 2026-05-07 00:25 | 28.55993 | -81.32814 | 2584 ft | 173 kts | 181° |
| 2026-05-07 00:25 | 28.54934 | -81.32850 | 2217 ft | 165 kts | 181° |
| 2026-05-07 00:25 | 28.53761 | -81.32900 | 1676 ft | 159 kts | 181° |
| 2026-05-07 00:26 | 28.52670 | -81.32938 | 1372 ft | 138 kts | 181° |
| 2026-05-07 00:26 | 28.51707 | -81.32949 | 1273 ft | 135 kts | 179° |
| 2026-05-07 00:26 | 28.50699 | -81.32926 | 1113 ft | 138 kts | 178° |
| 2026-05-07 00:26 | 28.49791 | -81.32880 | 1017 ft | 137 kts | 177° |
| 2026-05-07 00:27 | 28.48831 | -81.32855 | 932 ft | 137 kts | 177° |
| 2026-05-07 00:27 | 28.47853 | -81.32822 | 708 ft | 142 kts | 176° |
| 2026-05-07 00:27 | 28.46847 | -81.32738 | 453 ft | 142 kts | 175° |
| 2026-05-07 00:27 | 28.45837 | -81.32728 | 269 ft | 141 kts | 175° |
| 2026-05-07 00:28 | 28.44823 | -81.32705 | 125 ft | 134 kts | 175° |
| 2026-05-07 00:28 | 28.44099 | -81.32687 | 106 ft | 54 kts | 180° |
| 2026-05-07 00:28 | 28.43802 | -81.32683 | 106 ft | 36 kts | 184° |
| 2026-05-07 00:28 | 28.43626 | -81.32658 | 106 ft | 13 kts | 113° |
| 2026-05-07 00:29 | 28.43677 | -81.32528 | 106 ft | 19 kts | 54° |
| 2026-05-07 00:29 | 28.43760 | -81.32396 | 106 ft | 22 kts | 54° |
| 2026-05-07 00:30 | 28.43946 | -81.31842 | 106 ft | 29 kts | 90° |
| 2026-05-07 00:30 | 28.43945 | -81.31628 | 106 ft | 29 kts | 90° |
| 2026-05-07 00:30 | 28.43944 | -81.31379 | 106 ft | 29 kts | 90° |
| 2026-05-07 00:30 | 28.43944 | -81.31149 | 106 ft | 32 kts | 89° |
| 2026-05-07 00:31 | 28.43946 | -81.30876 | 106 ft | 36 kts | 90° |
| 2026-05-07 00:31 | 28.43945 | -81.30606 | 106 ft | 33 kts | 90° |
| 2026-05-07 00:31 | 28.43944 | -81.30336 | 106 ft | 36 kts | 91° |
| 2026-05-07 00:31 | 28.43938 | -81.30133 | 106 ft | 38 kts | 99° |
| 2026-05-07 00:32 | 28.43816 | -81.29883 | 106 ft | 35 kts | 143° |
| 2026-05-07 00:32 | 28.43606 | -81.29793 | 106 ft | 30 kts | 181° |
| 2026-05-07 00:32 | 28.43405 | -81.29793 | 106 ft | 27 kts | 181° |
| 2026-05-07 00:32 | 28.43330 | -81.29864 | 106 ft | 5 kts | 259° |
| 2026-05-07 00:33 | 28.43325 | -81.29887 | 106 ft | 1 kts | 254° |
| 2026-05-07 00:33 | 28.43324 | -81.29889 | 106 ft | 0 kts | 254° |
| 2026-05-07 00:34 | 28.43293 | -81.29971 | 106 ft | 16 kts | 245° |
| 2026-05-07 00:34 | 28.43271 | -81.30109 | 106 ft | 18 kts | 291° |
| 2026-05-07 00:34 | 28.43330 | -81.30109 | 106 ft | 8 kts | 52° |
| 2026-05-07 00:34 | 28.43345 | -81.30085 | 106 ft | 0 kts | 54° |